Time;durP1;ratioP1;P1;durP2;ratioP2;P2;SDS_P1;SDS_P2;PMS_P1;PMS_P2;Temp;Humidity;BMP_temperature;BMP_pressure;BME280_temperature;BME280_humidity;BME280_pressure;Samples;Min_cycle;Max_cycle;Signal;HPM_P1;HPM_P2
2022/12/10 00:01:57;;;;;;;53.70;25.00;;;;;;;9.40;100.00;99076.78;5052136;28;20227;-65
2022/12/10 00:04:25;;;;;;;53.10;24.20;;;;;;;9.43;100.00;99075.56;5053324;28;20200;-66
2022/12/10 00:06:52;;;;;;;53.83;23.70;;;;;;;9.48;100.00;99075.81;5052340;28;20192;-65
2022/12/10 00:09:20;;;;;;;60.90;24.60;;;;;;;9.44;100.00;99071.91;5052077;28;20204;-65
2022/12/10 00:11:47;;;;;;;57.80;23.63;;;;;;;9.46;100.00;99069.88;5052232;28;20236;-65
2022/12/10 00:14:15;;;;;;;49.77;24.37;;;;;;;9.53;100.00;99065.41;5052808;28;20292;-65
2022/12/10 00:16:42;;;;;;;61.77;25.13;;;;;;;9.56;100.00;99075.63;5051874;28;20193;-65
2022/12/10 00:19:09;;;;;;;56.40;23.80;;;;;;;9.61;100.00;99067.88;5052059;28;20220;-65
2022/12/10 00:21:37;;;;;;;53.33;23.47;;;;;;;9.65;100.00;99079.72;5051854;28;20648;-65
2022/12/10 00:24:05;;;;;;;59.57;25.00;;;;;;;9.65;100.00;99074.44;5051862;28;20278;-65
2022/12/10 00:26:34;;;;;;;49.67;23.73;;;;;;;9.67;100.00;99073.19;5051810;28;20197;-65
2022/12/10 00:29:02;;;;;;;51.00;22.27;;;;;;;9.63;100.00;99081.75;5052128;28;20197;-65
2022/12/10 00:31:31;;;;;;;50.30;23.67;;;;;;;9.58;100.00;99073.56;5051603;28;20732;-66
2022/12/10 00:33:59;;;;;;;54.10;24.03;;;;;;;9.58;100.00;99077.06;5052490;28;20189;-66
2022/12/10 00:36:27;;;;;;;57.93;23.17;;;;;;;9.51;100.00;99078.03;5051685;28;20730;-66
2022/12/10 00:38:55;;;;;;;52.03;23.97;;;;;;;9.47;100.00;99071.50;5051991;28;20268;-65
2022/12/10 00:41:23;;;;;;;55.43;24.43;;;;;;;9.48;100.00;99089.84;5051964;28;20196;-65
2022/12/10 00:43:50;;;;;;;55.77;22.23;;;;;;;9.34;100.00;99079.41;5052796;28;20196;-65
2022/12/10 00:46:19;;;;;;;49.40;23.60;;;;;;;9.36;100.00;99080.03;5051603;28;20197;-65
2022/12/10 00:48:46;;;;;;;49.13;23.97;;;;;;;9.33;100.00;99085.72;5051662;28;20573;-66
2022/12/10 00:51:14;;;;;;;54.00;24.17;;;;;;;9.30;100.00;99080.81;5051875;28;20574;-65
2022/12/10 00:53:42;;;;;;;49.00;24.07;;;;;;;9.41;100.00;99083.75;5051180;28;20196;-66
2022/12/10 00:56:12;;;;;;;58.20;24.47;;;;;;;9.38;100.00;99075.34;5051845;28;20196;-65
2022/12/10 00:58:39;;;;;;;52.43;24.73;;;;;;;9.31;100.00;99077.19;5051836;28;20220;-65
2022/12/10 01:01:11;;;;;;;56.53;25.67;;;;;;;9.29;100.00;99073.88;5051813;28;20256;-65
2022/12/10 01:03:38;;;;;;;54.37;24.47;;;;;;;9.25;100.00;99062.03;5051496;28;20624;-66
2022/12/10 01:06:13;;;;;;;63.47;27.77;;;;;;;9.25;100.00;99056.75;5054507;28;20234;-66
2022/12/10 01:08:40;;;;;;;63.07;27.03;;;;;;;9.31;100.00;99077.19;5056980;28;20200;-66
2022/12/10 01:11:08;;;;;;;67.70;28.73;;;;;;;9.28;100.00;99056.38;5056037;28;20188;-66
2022/12/10 01:13:36;;;;;;;59.93;28.13;;;;;;;9.32;100.00;99058.41;5055501;28;20254;-66
2022/12/10 01:16:04;;;;;;;84.57;30.50;;;;;;;9.28;100.00;99066.97;5055333;28;20242;-66
2022/12/10 01:18:30;;;;;;;75.33;31.77;;;;;;;9.33;100.00;99053.94;5055499;28;20277;-67
2022/12/10 01:21:01;;;;;;;77.47;30.67;;;;;;;9.39;100.00;99048.66;5055732;28;20278;-67
2022/12/10 01:23:28;;;;;;;86.87;32.93;;;;;;;9.33;100.00;99048.63;5055447;28;20185;-67
2022/12/10 01:25:55;;;;;;;82.77;34.03;;;;;;;9.25;100.00;99049.63;5056034;28;20188;-66
2022/12/10 01:28:21;;;;;;;77.10;33.20;;;;;;;9.29;100.00;99031.50;5055002;28;20204;-66
2022/12/10 01:30:49;;;;;;;73.37;31.73;;;;;;;9.31;100.00;99040.88;5054941;28;20223;-65
2022/12/10 01:33:16;;;;;;;74.67;33.07;;;;;;;9.34;100.00;99035.19;5055276;28;20297;-65
2022/12/10 01:35:43;;;;;;;75.97;31.00;;;;;;;9.37;100.00;99033.97;5054964;28;20196;-66
2022/12/10 01:38:09;;;;;;;75.27;31.93;;;;;;;9.38;100.00;99025.00;5055141;28;20200;-66
2022/12/10 01:40:38;;;;;;;82.93;33.10;;;;;;;9.32;100.00;99031.91;5055129;28;20250;-66
2022/12/10 01:43:05;;;;;;;84.70;35.40;;;;;;;9.18;100.00;99013.50;5055355;28;20192;-66
2022/12/10 01:45:32;;;;;;;81.53;35.47;;;;;;;9.26;100.00;99026.56;5055125;28;20197;-66
2022/12/10 01:48:00;;;;;;;81.77;34.57;;;;;;;9.16;100.00;99015.56;5055260;28;20196;-65
2022/12/10 01:50:27;;;;;;;82.87;33.57;;;;;;;9.23;100.00;99021.69;5056127;28;20201;-65
2022/12/10 01:52:54;;;;;;;81.77;33.80;;;;;;;9.19;100.00;99028.41;5055134;28;20211;-66
2022/12/10 01:55:41;;;;;;;78.03;34.30;;;;;;;9.06;100.00;98988.59;5054928;28;20204;-66
2022/12/10 01:58:07;;;;;;;78.47;35.17;;;;;;;9.17;100.00;99006.56;5054380;28;20227;-65
2022/12/10 02:00:37;;;;;;;76.93;34.50;;;;;;;9.21;100.00;99002.50;5054465;28;20686;-65
2022/12/10 02:03:13;;;;;;;73.43;33.13;;;;;;;9.25;100.00;99001.94;5054818;28;20249;-66
2022/12/10 02:05:45;;;;;;;67.33;31.97;;;;;;;9.14;100.00;99006.97;5055295;28;20188;-66
2022/12/10 02:08:19;;;;;;;84.03;33.10;;;;;;;9.17;100.00;99009.22;5054964;28;20189;-66
2022/12/10 02:10:58;;;;;;;82.53;35.83;;;;;;;9.04;100.00;98995.94;5054669;28;20249;-66
2022/12/10 02:13:32;;;;;;;74.13;32.43;;;;;;;9.09;100.00;98993.50;5054773;28;20188;-66
2022/12/10 02:16:03;;;;;;;75.37;32.60;;;;;;;9.16;100.00;98992.53;5054603;28;20181;-66
2022/12/10 02:18:35;;;;;;;66.47;30.73;;;;;;;9.25;100.00;98998.44;5053729;28;20213;-65
2022/12/10 02:21:07;;;;;;;73.57;31.97;;;;;;;9.18;100.00;98990.47;5054356;28;20228;-65
2022/12/10 02:23:37;;;;;;;66.23;30.47;;;;;;;9.23;100.00;99006.59;5054042;28;20184;-65
2022/12/10 02:26:12;;;;;;;67.33;30.03;;;;;;;9.10;100.00;99001.25;5054118;28;20181;-65
2022/12/10 02:28:45;;;;;;;59.23;29.20;;;;;;;9.16;100.00;98999.66;5053955;28;20184;-66
2022/12/10 02:31:18;;;;;;;57.53;28.83;;;;;;;9.21;100.00;98991.91;5053898;28;20648;-66
2022/12/10 02:33:50;;;;;;;56.40;28.37;;;;;;;9.23;100.00;99003.16;5053873;28;20279;-66
2022/12/10 02:36:18;;;;;;;58.70;28.60;;;;;;;9.24;100.00;99016.16;5053905;28;20247;-65
2022/12/10 02:38:45;;;;;;;61.80;28.50;;;;;;;9.28;100.00;99009.47;5053609;28;20224;-65
2022/12/10 02:41:17;;;;;;;62.67;26.97;;;;;;;9.25;100.00;98993.16;5053306;28;20215;-66
2022/12/10 02:43:47;;;;;;;62.53;28.23;;;;;;;9.31;100.00;99013.56;5053672;28;20211;-65
2022/12/10 02:46:16;;;;;;;57.20;27.00;;;;;;;9.24;100.00;99018.03;5053622;28;20192;-65
2022/12/10 02:48:43;;;;;;;61.47;26.70;;;;;;;9.20;100.00;99006.19;5053870;28;20230;-65
2022/12/10 02:51:10;;;;;;;53.10;27.90;;;;;;;9.20;100.00;99016.78;5053605;28;20668;-66
2022/12/10 02:53:42;;;;;;;55.27;27.23;;;;;;;9.17;100.00;99006.56;5053460;28;20726;-66
2022/12/10 02:56:17;;;;;;;51.60;27.63;;;;;;;9.20;100.00;99004.34;5053461;28;20189;-66
2022/12/10 02:58:56;;;;;;;50.33;26.23;;;;;;;9.10;100.00;98987.19;5053333;28;20208;-65
2022/12/10 03:01:34;;;;;;;57.27;26.33;;;;;;;9.13;100.00;98989.44;5053514;28;20238;-65
2022/12/10 03:04:05;;;;;;;61.00;26.90;;;;;;;9.06;100.00;98988.59;5053832;28;20553;-65
2022/12/10 03:06:39;;;;;;;57.47;28.10;;;;;;;9.02;100.00;98985.53;5053912;28;20185;-65
2022/12/10 03:09:09;;;;;;;56.80;25.90;;;;;;;9.04;100.00;98988.00;5053263;28;20626;-66
2022/12/10 03:11:36;;;;;;;56.60;27.53;;;;;;;8.92;100.00;98982.47;5053503;28;20250;-66
2022/12/10 03:14:07;;;;;;;50.97;26.50;;;;;;;8.97;100.00;98997.75;5053552;28;20192;-66
2022/12/10 03:16:40;;;;;;;56.33;26.63;;;;;;;8.93;100.00;98983.25;5053085;28;20234;-66
2022/12/10 03:19:11;;;;;;;56.80;27.87;;;;;;;8.97;100.00;98990.63;5052758;28;20220;-66
2022/12/10 03:21:40;;;;;;;54.80;26.43;;;;;;;8.92;100.00;98978.97;5053501;28;20189;-65
2022/12/10 03:24:08;;;;;;;60.23;28.43;;;;;;;8.96;100.00;98966.97;5052822;28;20197;-65
2022/12/10 03:26:37;;;;;;;59.27;28.47;;;;;;;9.01;100.00;98975.13;5053192;28;20254;-65
2022/12/10 03:29:09;;;;;;;53.97;27.37;;;;;;;9.06;100.00;98972.69;5053399;28;20196;-65
2022/12/10 03:31:39;;;;;;;62.17;27.57;;;;;;;9.11;100.00;98971.09;5052764;28;20714;-66
2022/12/10 03:34:07;;;;;;;61.73;27.20;;;;;;;9.15;100.00;98974.97;5053226;28;20192;-65
2022/12/10 03:36:35;;;;;;;59.23;27.40;;;;;;;9.16;100.00;98981.09;5052629;28;20196;-65
2022/12/10 03:39:03;;;;;;;64.07;27.70;;;;;;;9.05;100.00;98960.47;5052469;28;20219;-65
2022/12/10 03:41:29;;;;;;;67.63;29.80;;;;;;;9.04;100.00;98956.22;5053172;28;20193;-66
2022/12/10 03:43:58;;;;;;;62.97;27.80;;;;;;;8.89;100.00;98959.00;5052739;28;20622;-66
2022/12/10 03:46:28;;;;;;;65.60;27.70;;;;;;;8.91;100.00;98958.81;5052809;28;20196;-65
2022/12/10 03:48:57;;;;;;;65.53;28.67;;;;;;;8.85;100.00;98949.00;5052995;28;20196;-65
2022/12/10 03:51:23;;;;;;;70.83;29.27;;;;;;;8.90;100.00;98944.75;5053038;28;20192;-66
2022/12/10 03:53:50;;;;;;;69.93;28.60;;;;;;;8.84;100.00;98937.59;5052909;28;20192;-66
2022/12/10 03:56:18;;;;;;;66.87;29.03;;;;;;;8.91;100.00;98942.94;5052982;28;20196;-66
2022/12/10 03:58:45;;;;;;;70.30;28.57;;;;;;;8.90;100.00;98946.59;5052799;28;20196;-65
2022/12/10 04:01:11;;;;;;;64.20;25.43;;;;;;;8.88;100.00;98938.03;5053117;28;20189;-66
2022/12/10 04:03:40;;;;;;;62.60;26.87;;;;;;;8.95;100.00;98949.47;5052333;28;20615;-66
2022/12/10 04:06:13;;;;;;;62.57;25.70;;;;;;;8.84;100.00;98940.25;5052208;28;20228;-66
2022/12/10 04:08:40;;;;;;;60.63;25.67;;;;;;;8.92;100.00;98955.16;5052125;28;20238;-66
2022/12/10 04:11:09;;;;;;;53.83;25.20;;;;;;;8.97;100.00;98966.78;5052111;28;20739;-66
2022/12/10 04:16:28;;;;;;;62.40;24.27;;;;;;;9.04;100.00;98964.97;5052238;28;20227;-66
2022/12/10 04:18:56;;;;;;;54.13;24.20;;;;;;;8.99;100.00;98963.94;5051958;28;20195;-66
2022/12/10 04:26:53;;;;;;;48.60;24.67;;;;;;;9.09;100.00;98935.22;5052634;28;20180;-65
2022/12/10 04:29:20;;;;;;;51.30;23.87;;;;;;;9.12;100.00;98956.03;5052229;28;20193;-65
2022/12/10 04:31:47;;;;;;;59.50;25.57;;;;;;;9.19;100.00;98957.66;5052013;28;20192;-65
2022/12/10 04:34:14;;;;;;;58.83;25.70;;;;;;;9.19;100.00;98957.66;5051792;28;20246;-65
2022/12/10 04:36:42;;;;;;;55.47;24.10;;;;;;;9.18;100.00;98957.88;5052140;28;20196;-65
2022/12/10 04:39:11;;;;;;;52.67;24.23;;;;;;;9.18;100.00;98960.50;5051625;28;20273;-66
2022/12/10 04:41:38;;;;;;;54.57;23.93;;;;;;;9.20;100.00;98963.78;5051371;28;20189;-66
2022/12/10 04:44:05;;;;;;;54.63;24.30;;;;;;;9.17;100.00;98959.72;5052280;28;20558;-66
2022/12/10 04:46:32;;;;;;;57.23;26.07;;;;;;;9.15;100.00;98966.22;5052029;28;20265;-65
2022/12/10 04:48:59;;;;;;;56.23;25.43;;;;;;;9.20;100.00;98961.16;5051617;28;20632;-65
2022/12/10 04:51:26;;;;;;;61.53;25.03;;;;;;;9.24;100.00;98975.63;5052195;28;20270;-66
2022/12/10 04:53:54;;;;;;;55.90;24.10;;;;;;;9.22;100.00;98961.75;5052593;28;20309;-66
2022/12/10 04:56:20;;;;;;;61.90;23.17;;;;;;;9.23;100.00;98958.91;5051700;28;20204;-65
2022/12/10 04:58:47;;;;;;;51.03;22.97;;;;;;;9.24;100.00;98957.09;5051834;28;20196;-65
2022/12/10 05:01:14;;;;;;;63.00;24.37;;;;;;;9.19;100.00;98951.56;5051601;28;20196;-66
2022/12/10 05:03:41;;;;;;;54.07;23.17;;;;;;;9.14;100.00;98940.72;5051792;28;20250;-66
2022/12/10 05:06:10;;;;;;;51.27;21.80;;;;;;;9.17;100.00;98938.53;5051841;28;20252;-66
2022/12/10 05:08:37;;;;;;;52.53;23.10;;;;;;;9.18;100.00;98939.31;5051470;28;20246;-65
2022/12/10 05:11:07;;;;;;;43.97;20.97;;;;;;;9.12;100.00;98946.25;5051662;28;20266;-65
2022/12/10 05:13:34;;;;;;;54.33;24.00;;;;;;;9.11;100.00;98949.09;5051814;28;20196;-66
2022/12/10 05:16:02;;;;;;;49.07;22.40;;;;;;;9.12;100.00;98950.72;5051403;28;20193;-66
2022/12/10 05:18:29;;;;;;;52.73;21.80;;;;;;;8.96;100.00;98946.63;5051414;28;20254;-65
2022/12/10 05:20:58;;;;;;;54.30;22.90;;;;;;;8.97;100.00;98958.00;5052122;28;20286;-65
2022/12/10 05:23:30;;;;;;;55.30;23.23;;;;;;;9.03;100.00;98957.22;5051674;28;20269;-66
2022/12/10 05:26:01;;;;;;;55.80;23.87;;;;;;;9.07;100.00;98950.50;5051629;28;20268;-65
2022/12/10 05:28:30;;;;;;;50.27;22.40;;;;;;;9.12;100.00;98948.09;5051514;28;20196;-65
2022/12/10 05:30:58;;;;;;;50.00;22.20;;;;;;;9.12;100.00;98956.03;5051109;28;20246;-64
2022/12/10 05:33:25;;;;;;;47.23;21.83;;;;;;;9.05;100.00;98949.88;5051569;28;20255;-64
2022/12/10 05:35:53;;;;;;;46.17;21.87;;;;;;;9.03;100.00;98955.38;5051513;28;20553;-65
2022/12/10 05:38:21;;;;;;;56.13;23.47;;;;;;;8.97;100.00;98952.72;5051551;28;20262;-66
2022/12/10 05:40:47;;;;;;;51.97;22.07;;;;;;;9.02;100.00;98956.41;5051307;28;20224;-65
2022/12/10 05:43:14;;;;;;;52.43;22.20;;;;;;;9.07;100.00;98950.50;5052095;28;20604;-64
2022/12/10 05:45:42;;;;;;;50.43;22.37;;;;;;;9.09;100.00;98946.66;5051578;28;20192;-65
2022/12/10 05:48:10;;;;;;;50.40;22.63;;;;;;;9.16;100.00;98944.00;5051571;28;20246;-64
2022/12/10 05:50:37;;;;;;;52.50;22.57;;;;;;;9.17;100.00;98943.00;5051336;28;20193;-65
2022/12/10 05:53:04;;;;;;;50.27;21.57;;;;;;;9.10;100.00;98936.84;5053038;28;20664;-65
2022/12/10 05:55:32;;;;;;;52.90;23.67;;;;;;;9.05;100.00;98940.13;5054525;28;20258;-65
2022/12/10 05:57:59;;;;;;;50.03;23.50;;;;;;;9.06;100.00;98935.63;5054592;28;20228;-65
2022/12/10 06:00:27;;;;;;;55.60;24.23;;;;;;;8.98;100.00;98933.97;5055077;28;20220;-65
2022/12/10 06:02:55;;;;;;;60.23;24.87;;;;;;;8.95;100.00;98912.38;5055073;28;20234;-65
2022/12/10 06:05:22;;;;;;;59.00;24.00;;;;;;;9.07;100.00;98940.72;5054633;28;20196;-65
2022/12/10 06:07:49;;;;;;;67.47;24.27;;;;;;;9.18;100.00;98928.72;5054381;28;20249;-65
2022/12/10 06:10:16;;;;;;;59.60;25.47;;;;;;;9.24;100.00;98941.19;5054633;28;20254;-65
2022/12/10 06:12:43;;;;;;;55.43;24.37;;;;;;;9.36;100.00;98947.53;5054389;28;20197;-66
2022/12/10 06:15:10;;;;;;;55.83;25.33;;;;;;;9.42;100.00;98925.50;5034684;28;20193;-64
2022/12/10 06:17:37;;;;;;;44.80;21.53;;;;;;;9.37;100.00;98920.00;5034656;28;20216;-65
2022/12/10 06:20:06;;;;;;;50.63;22.30;;;;;;;9.30;100.00;98920.00;5034066;28;20346;-67
2022/12/10 06:22:34;;;;;;;45.27;19.83;;;;;;;9.32;100.00;98928.53;5046650;28;20200;-66
2022/12/10 06:25:01;;;;;;;43.23;20.30;;;;;;;9.39;100.00;98915.31;5053944;28;20669;-65
2022/12/10 06:27:29;;;;;;;46.93;20.87;;;;;;;9.44;100.00;98918.97;5044036;28;20185;-66
2022/12/10 06:29:56;;;;;;;47.53;20.43;;;;;;;9.52;100.00;98936.53;5046266;28;20196;-66
2022/12/10 06:32:23;;;;;;;43.93;21.40;;;;;;;9.53;100.00;98931.03;5053508;28;20667;-67
2022/12/10 06:34:49;;;;;;;40.93;19.47;;;;;;;9.47;100.00;98928.34;5053880;28;20197;-66
2022/12/10 06:37:18;;;;;;;59.33;26.40;;;;;;;9.49;100.00;98943.06;5053871;28;20197;-66
2022/12/10 06:39:44;;;;;;;46.07;22.30;;;;;;;9.50;100.00;98939.38;5053676;28;20352;-67
2022/12/10 06:42:11;;;;;;;48.80;21.37;;;;;;;9.55;100.00;98944.06;5053745;28;20189;-67
2022/12/10 06:44:37;;;;;;;46.77;23.27;;;;;;;9.55;100.00;98944.06;5053653;28;20656;-67
2022/12/10 06:47:04;;;;;;;45.43;21.33;;;;;;;9.55;100.00;98944.06;5053580;28;20622;-66
2022/12/10 06:49:31;;;;;;;47.43;21.83;;;;;;;9.49;100.00;98926.34;5053959;28;20246;-67
2022/12/10 06:51:58;;;;;;;44.97;21.33;;;;;;;9.53;100.00;98940.81;5053585;28;20192;-66
2022/12/10 06:54:26;;;;;;;50.70;24.00;;;;;;;9.49;100.00;98937.75;5053526;28;20208;-66
2022/12/10 06:56:52;;;;;;;44.73;23.53;;;;;;;9.51;100.00;98950.78;5053659;28;20196;-68
2022/12/10 06:59:20;;;;;;;54.23;28.80;;;;;;;9.50;100.00;98936.75;5049165;28;20212;-69
2022/12/10 07:01:47;;;;;;;51.63;23.73;;;;;;;9.50;100.00;98938.56;5052992;28;20235;-66
2022/12/10 07:04:14;;;;;;;53.00;23.77;;;;;;;9.55;100.00;98946.72;5053389;28;20189;-66
2022/12/10 07:06:41;;;;;;;42.07;22.30;;;;;;;9.54;100.00;98940.63;5053210;28;20224;-67
2022/12/10 07:09:09;;;;;;;43.50;22.13;;;;;;;9.59;100.00;98940.00;5053247;28;20200;-66
2022/12/10 07:11:37;;;;;;;50.63;25.40;;;;;;;9.63;100.00;98951.81;5053483;28;20196;-66
2022/12/10 07:14:04;;;;;;;48.43;25.47;;;;;;;9.60;100.00;98947.75;5053099;28;20196;-66
2022/12/10 07:16:33;;;;;;;43.13;22.07;;;;;;;9.63;100.00;98938.56;5053318;28;20197;-67
2022/12/10 07:19:02;;;;;;;47.00;22.07;;;;;;;9.64;100.00;98930.41;5053150;28;20243;-67
2022/12/10 07:21:31;;;;;;;43.03;20.53;;;;;;;9.57;100.00;98934.91;5053120;28;20742;-66
2022/12/10 07:24:02;;;;;;;36.00;19.17;;;;;;;9.59;100.00;98935.50;5052752;28;20192;-67
2022/12/10 07:26:30;;;;;;;41.87;20.70;;;;;;;9.43;100.00;98924.47;5042486;28;20224;-71
2022/12/10 07:29:00;;;;;;;46.63;20.53;;;;;;;9.50;100.00;98923.47;5031403;28;20193;-72
2022/12/10 07:31:26;;;;;;;49.67;21.53;;;;;;;9.42;100.00;98921.03;5047274;28;20704;-68
2022/12/10 07:33:54;;;;;;;40.63;21.17;;;;;;;9.46;100.00;98916.94;5053057;28;20664;-67
2022/12/10 07:36:23;;;;;;;54.50;27.13;;;;;;;9.49;100.00;98919.22;5052266;28;20196;-67
2022/12/10 07:38:51;;;;;;;44.60;23.33;;;;;;;9.57;100.00;98913.72;5046025;28;20196;-67
2022/12/10 07:41:18;;;;;;;47.97;23.97;;;;;;;9.69;100.00;98933.25;5039105;28;20286;-66
2022/12/10 07:43:46;;;;;;;48.20;23.57;;;;;;;9.79;100.00;98932.84;5047923;28;20192;-67
2022/12/10 07:46:16;;;;;;;52.70;24.10;;;;;;;9.86;100.00;98917.75;5051884;28;20262;-67
2022/12/10 07:48:44;;;;;;;40.70;21.83;;;;;;;9.95;100.00;98913.88;5032596;28;20383;-67
2022/12/10 07:51:11;;;;;;;45.70;21.13;;;;;;;10.05;100.00;98906.34;5032180;28;20201;-68
2022/12/10 07:53:38;;;;;;;42.50;19.97;;;;;;;10.16;100.00;98905.69;5034431;28;20263;-68
2022/12/10 07:56:05;;;;;;;48.10;21.53;;;;;;;10.20;100.00;98905.09;5051208;28;20749;-67
2022/12/10 07:58:32;;;;;;;41.33;21.57;;;;;;;10.29;100.00;98919.75;5052164;28;20188;-66
2022/12/10 08:00:59;;;;;;;49.53;23.47;;;;;;;10.36;100.00;98915.25;5048335;28;20223;-71
2022/12/10 08:03:27;;;;;;;43.07;22.60;;;;;;;10.43;100.00;98936.47;5051313;28;20734;-68
2022/12/10 08:06:02;;;;;;;45.67;23.43;;;;;;;10.42;100.00;98926.88;5051648;28;20250;-67
2022/12/10 08:08:28;;;;;;;49.57;23.00;;;;;;;10.46;100.00;98909.53;5052101;28;20187;-68
2022/12/10 08:10:55;;;;;;;41.67;20.47;;;;;;;10.25;100.00;98907.13;5051879;28;20254;-69
2022/12/10 08:13:22;;;;;;;37.37;19.70;;;;;;;10.24;100.00;98910.78;5038922;28;20243;-66
2022/12/10 08:15:48;;;;;;;39.63;22.00;;;;;;;10.33;100.00;98914.84;5051631;28;20254;-70
2022/12/10 08:18:15;;;;;;;43.17;22.30;;;;;;;10.33;100.00;98904.22;5051811;28;20196;-68
2022/12/10 08:20:43;;;;;;;45.63;23.20;;;;;;;10.36;100.00;98903.81;5049825;28;20285;-68
2022/12/10 08:23:10;;;;;;;44.67;23.33;;;;;;;10.34;100.00;98903.22;5050637;28;20204;-68
2022/12/10 08:25:37;;;;;;;47.43;22.80;;;;;;;10.52;100.00;98928.09;5049321;28;20270;-68
2022/12/10 08:28:04;;;;;;;40.53;22.37;;;;;;;10.52;100.00;98932.56;5051881;28;20270;-67
2022/12/10 08:30:31;;;;;;;41.10;22.23;;;;;;;10.40;100.00;98913.81;5049910;28;20196;-67
2022/12/10 08:32:57;;;;;;;54.77;28.30;;;;;;;10.40;100.00;98905.03;5051203;28;20756;-67
2022/12/10 08:35:24;;;;;;;45.33;23.30;;;;;;;10.49;100.00;98890.50;5051788;28;20631;-67
2022/12/10 08:37:53;;;;;;;41.27;21.40;;;;;;;10.55;100.00;98892.31;5051106;28;20189;-66
2022/12/10 08:40:20;;;;;;;40.00;21.60;;;;;;;10.53;100.00;98878.44;5051296;28;20266;-68
2022/12/10 08:42:46;;;;;;;36.90;19.90;;;;;;;10.63;100.00;98887.56;5051252;28;20228;-67
2022/12/10 08:45:13;;;;;;;37.63;21.10;;;;;;;10.72;100.00;98896.13;5051063;28;20193;-68
2022/12/10 08:47:40;;;;;;;35.73;20.70;;;;;;;10.77;100.00;98885.69;5050447;28;20190;-68
2022/12/10 08:50:07;;;;;;;36.50;20.70;;;;;;;10.73;100.00;98892.44;5051843;28;20565;-67
2022/12/10 08:52:34;;;;;;;42.33;21.07;;;;;;;10.64;100.00;98886.56;5051684;28;20206;-67
2022/12/10 08:55:02;;;;;;;40.03;22.87;;;;;;;10.68;100.00;98878.97;5051805;28;20247;-68
2022/12/10 08:57:28;;;;;;;39.67;22.57;;;;;;;10.78;100.00;98889.97;5051731;28;20684;-66
2022/12/10 08:59:55;;;;;;;41.53;24.20;;;;;;;10.91;100.00;98874.78;5051961;28;20279;-70
2022/12/10 09:02:22;;;;;;;40.87;25.00;;;;;;;11.06;100.00;98874.47;5051411;28;20247;-69
2022/12/10 09:04:50;;;;;;;39.77;22.03;;;;;;;11.07;100.00;98871.59;5052068;28;20192;-69
2022/12/10 09:07:17;;;;;;;44.57;23.13;;;;;;;11.17;99.96;98868.47;5051954;28;20250;-69
2022/12/10 09:12:35;;;;;;;45.07;26.17;;;;;;;11.42;99.87;98853.38;5051550;28;20201;-70
2022/12/10 09:15:02;;;;;;;30.57;19.20;;;;;;;11.57;100.00;98851.22;5052474;28;20190;-71
2022/12/10 09:17:39;;;;;;;26.90;17.57;;;;;;;11.53;97.84;98818.09;5051304;28;20193;-70
2022/12/10 09:20:12;;;;;;;28.50;18.13;;;;;;;11.78;96.45;98840.19;5050774;28;20267;-71
2022/12/10 09:22:40;;;;;;;33.57;18.67;;;;;;;11.87;96.64;98832.72;5049561;28;20229;-71
2022/12/10 09:25:09;;;;;;;36.33;18.87;;;;;;;12.03;96.75;98825.00;5049728;28;20925;-71
2022/12/10 09:27:38;;;;;;;28.60;17.63;;;;;;;12.19;95.65;98828.91;5053605;28;20199;-70
2022/12/10 09:30:08;;;;;;;24.70;16.60;;;;;;;12.21;93.57;98829.50;5053543;28;20595;-70
2022/12/10 09:32:35;;;;;;;26.77;17.07;;;;;;;12.31;94.11;98822.63;5055265;28;20279;-70
2022/12/10 09:35:03;;;;;;;21.57;14.83;;;;;;;12.53;93.08;98810.44;5054875;28;20733;-70
2022/12/10 09:37:30;;;;;;;22.27;14.67;;;;;;;12.69;91.70;98799.16;5055528;28;20194;-70
2022/12/10 09:40:05;;;;;;;22.80;16.70;;;;;;;12.91;90.07;98794.94;5055138;28;20203;-71
2022/12/10 09:42:45;;;;;;;22.60;14.67;;;;;;;13.13;87.53;98801.41;5053798;28;20215;-71
2022/12/10 09:45:20;;;;;;;25.63;16.57;;;;;;;13.13;88.80;98774.75;5055437;28;20276;-72
2022/12/10 09:47:59;;;;;;;25.23;16.33;;;;;;;13.33;87.70;98795.75;5053525;28;20207;-72
2022/12/10 09:50:32;;;;;;;26.77;16.90;;;;;;;13.35;87.05;98789.16;5054083;28;20243;-71
2022/12/10 09:53:02;;;;;;;29.10;18.20;;;;;;;13.37;87.88;98781.75;5055235;28;20223;-71
2022/12/10 09:55:35;;;;;;;21.63;16.60;;;;;;;13.48;87.37;98786.25;5054512;28;20672;-71
2022/12/10 09:58:06;;;;;;;19.63;13.77;;;;;;;13.55;86.25;98776.28;5055126;28;20216;-71
2022/12/10 10:00:37;;;;;;;19.47;15.13;;;;;;;13.46;85.37;98774.19;5055022;28;20590;-71
2022/12/10 10:03:06;;;;;;;21.20;14.43;;;;;;;13.43;85.65;98775.47;5054338;28;20188;-71
2022/12/10 10:05:36;;;;;;;21.67;15.20;;;;;;;13.55;85.48;98770.13;5054105;28;20231;-71
2022/12/10 10:08:06;;;;;;;23.20;15.63;;;;;;;13.32;85.88;98752.25;5054044;28;20649;-71
2022/12/10 10:10:35;;;;;;;23.97;16.53;;;;;;;13.29;86.53;98750.06;5054306;28;20200;-71
2022/12/10 10:13:18;;;;;;;23.70;15.27;;;;;;;13.26;86.80;98753.19;5054640;28;20270;-71
2022/12/10 10:15:46;;;;;;;24.23;14.40;;;;;;;13.19;86.43;98757.81;5054604;28;20194;-71
2022/12/10 10:18:21;;;;;;;17.00;13.37;;;;;;;13.25;86.89;98740.91;5054422;28;20227;-71
2022/12/10 10:20:48;;;;;;;18.77;13.37;;;;;;;13.24;86.00;98749.94;5054901;28;20299;-71
2022/12/10 10:23:16;;;;;;;25.60;16.20;;;;;;;13.20;85.92;98740.81;5054284;28;20239;-72
2022/12/10 10:25:44;;;;;;;22.73;16.20;;;;;;;13.23;87.05;98752.84;5054161;28;20667;-71
2022/12/10 10:28:17;;;;;;;16.60;13.37;;;;;;;13.14;86.82;98731.03;5054151;28;20196;-71
2022/12/10 10:30:45;;;;;;;20.17;11.97;;;;;;;13.18;87.25;98734.06;5054662;28;20189;-71
2022/12/10 10:33:14;;;;;;;22.87;13.77;;;;;;;13.22;86.89;98736.03;5054763;28;20276;-72
2022/12/10 10:35:45;;;;;;;20.47;13.17;;;;;;;13.24;86.63;98728.59;5054295;28;20333;-71
2022/12/10 10:38:18;;;;;;;19.83;13.67;;;;;;;13.15;86.98;98714.00;5053350;28;20253;-71
2022/12/10 10:40:47;;;;;;;20.07;14.87;;;;;;;13.06;87.69;98718.06;5054910;28;20243;-71
2022/12/10 10:43:21;;;;;;;19.00;14.20;;;;;;;13.04;87.47;98714.81;5053616;28;20197;-71
2022/12/10 10:45:51;;;;;;;21.53;14.20;;;;;;;13.03;87.91;98709.72;5054886;28;20196;-69
2022/12/10 10:48:19;;;;;;;21.77;14.23;;;;;;;13.10;87.10;98708.56;5053890;28;20245;-71
2022/12/10 10:50:48;;;;;;;18.20;14.20;;;;;;;13.03;87.10;98699.03;5053512;28;20261;-71
2022/12/10 10:53:31;;;;;;;22.73;13.47;;;;;;;13.05;86.67;98681.78;5053423;28;20203;-71
2022/12/10 10:56:06;;;;;;;21.47;13.03;;;;;;;13.04;86.92;98680.16;5053598;28;20188;-71
2022/12/10 10:58:35;;;;;;;24.43;14.17;;;;;;;13.10;87.09;98681.88;5053406;28;20651;-71
2022/12/10 11:01:04;;;;;;;30.37;15.30;;;;;;;13.18;87.02;98692.22;5053392;28;20266;-71
2022/12/10 11:03:33;;;;;;;28.40;14.83;;;;;;;13.00;87.09;98673.66;5053751;28;20619;-71
2022/12/10 11:06:00;;;;;;;20.93;14.07;;;;;;;13.09;87.91;98688.28;5053101;28;20199;-71
2022/12/10 11:08:31;;;;;;;22.07;14.70;;;;;;;13.21;87.43;98683.75;5053762;28;20197;-70
2022/12/10 11:11:03;;;;;;;23.50;15.10;;;;;;;13.17;86.29;98668.44;5054084;28;20576;-70
2022/12/10 11:13:31;;;;;;;28.63;15.57;;;;;;;13.21;87.47;98667.75;5053127;28;20724;-70
2022/12/10 11:16:03;;;;;;;27.83;15.97;;;;;;;13.28;87.43;98673.75;5054211;28;20192;-70
2022/12/10 11:18:35;;;;;;;27.07;16.07;;;;;;;13.23;86.65;98673.66;5053760;28;20202;-70
2022/12/10 11:21:06;;;;;;;25.57;15.93;;;;;;;13.25;87.01;98663.56;5051623;28;20238;-71
2022/12/10 11:23:39;;;;;;;22.07;16.63;;;;;;;13.38;86.42;98671.34;5051323;28;20731;-70
2022/12/10 11:26:43;;;;;;;33.13;16.67;;;;;;;13.45;85.89;98664.03;5050852;28;20222;-70
2022/12/10 11:29:25;;;;;;;32.23;15.63;;;;;;;13.48;85.54;98654.75;5050185;28;20635;-70
2022/12/10 11:32:07;;;;;;;23.07;16.70;;;;;;;13.58;85.26;98661.09;5050808;28;20242;-70
2022/12/10 11:34:49;;;;;;;26.43;16.73;;;;;;;13.59;85.99;98643.22;5051253;28;20188;-71
2022/12/10 11:37:25;;;;;;;24.73;16.07;;;;;;;13.57;85.55;98643.47;5050534;28;20184;-71